Time;durP1;ratioP1;P1;durP2;ratioP2;P2;SDS_P1;SDS_P2;PMS_P1;PMS_P2;Temp;Humidity;BMP_temperature;BMP_pressure;BME280_temperature;BME280_humidity;BME280_pressure;Samples;Min_cycle;Max_cycle;Signal;HPM_P1;HPM_P2
2023/02/17 00:01:20;;;;;;;2.33;2.15;;;;;;;;;;5077086;28;20040;-89
2023/02/17 00:03:46;;;;;;;1.45;1.35;;;;;;;;;;5076914;28;20049;-90
2023/02/17 00:06:13;;;;;;;1.25;1.23;;;;;;;;;;5077315;28;20135;-89
2023/02/17 00:08:40;;;;;;;4.15;1.10;;;;;;;;;;5076815;28;20098;-89
2023/02/17 00:11:06;;;;;;;1.20;1.17;;;;;;;;;;5077212;28;20052;-90
2023/02/17 00:13:33;;;;;;;1.40;1.23;;;;;;;;;;5077303;28;20044;-89
2023/02/17 00:16:05;;;;;;;0.93;0.93;;;;;;;;;;5076954;28;20094;-89
2023/02/17 00:18:32;;;;;;;1.17;1.15;;;;;;;;;;5076677;28;20048;-89
2023/02/17 00:20:58;;;;;;;4.15;2.35;;;;;;;;;;5076519;28;20464;-88
2023/02/17 00:23:25;;;;;;;1.77;1.67;;;;;;;;;;5076776;28;20110;-88
2023/02/17 00:25:51;;;;;;;0.85;0.85;;;;;;;;;;5076669;28;20059;-88
2023/02/17 00:28:18;;;;;;;4.45;3.15;;;;;;;;;;5076012;28;20126;-88
2023/02/17 00:30:44;;;;;;;3.35;1.23;;;;;;;;;;5076258;28;20056;-88
2023/02/17 00:33:12;;;;;;;1.08;1.08;;;;;;;;;;5076403;28;20048;-87
2023/02/17 00:35:39;;;;;;;2.90;1.27;;;;;;;;;;5094304;28;20044;-89
2023/02/17 00:38:06;;;;;;;1.27;1.27;;;;;;;;;;5096262;28;20052;-88
2023/02/17 00:40:32;;;;;;;1.77;1.67;;;;;;;;;;5096364;28;20056;-88
2023/02/17 00:42:59;;;;;;;0.30;0.30;;;;;;;;;;5095570;28;20121;-89
2023/02/17 00:45:25;;;;;;;1.80;1.70;;;;;;;;;;5096005;28;20044;-88
2023/02/17 00:47:52;;;;;;;1.25;1.25;;;;;;;;;;5095937;28;20048;-88
2023/02/17 00:50:20;;;;;;;1.17;1.17;;;;;;;;;;5096074;28;20110;-88
2023/02/17 00:52:46;;;;;;;1.73;1.63;;;;;;;;;;5078907;28;20082;-89
2023/02/17 00:55:13;;;;;;;0.73;0.73;;;;;;;;;;5076303;28;20052;-88
2023/02/17 00:57:39;;;;;;;3.72;2.35;;;;;;;;;;5076507;28;20052;-89
2023/02/17 01:00:07;;;;;;;1.52;1.42;;;;;;;;;;5075900;28;20052;-88
2023/02/17 01:02:34;;;;;;;2.42;2.22;;;;;;;;;;5076164;28;20387;-88
2023/02/17 01:05:01;;;;;;;1.17;1.17;;;;;;;;;;5075919;28;20048;-88
2023/02/17 01:07:28;;;;;;;1.88;1.77;;;;;;;;;;5075930;28;20106;-88
2023/02/17 01:09:55;;;;;;;3.08;2.88;;;;;;;;;;5075624;28;20052;-88
2023/02/17 01:12:22;;;;;;;1.95;1.85;;;;;;;;;;5075766;28;20050;-88
2023/02/17 01:14:48;;;;;;;2.63;2.42;;;;;;;;;;5092052;28;20508;-88
2023/02/17 01:17:15;;;;;;;2.97;2.45;;;;;;;;;;5096252;28;20052;-88
2023/02/17 01:19:41;;;;;;;0.75;0.75;;;;;;;;;;5096414;28;20386;-88
2023/02/17 01:22:08;;;;;;;0.82;0.68;;;;;;;;;;5095686;28;20526;-87
2023/02/17 01:24:36;;;;;;;1.92;1.83;;;;;;;;;;5094405;28;20079;-88
2023/02/17 01:27:02;;;;;;;1.45;1.42;;;;;;;;;;5095541;28;20044;-87
2023/02/17 01:29:29;;;;;;;1.30;1.20;;;;;;;;;;5095085;28;20542;-89
2023/02/17 01:31:55;;;;;;;1.17;1.13;;;;;;;;;;5095478;28;20409;-88
2023/02/17 01:34:22;;;;;;;1.73;1.65;;;;;;;;;;5095610;28;20040;-88
2023/02/17 01:36:48;;;;;;;2.15;1.92;;;;;;;;;;5095512;28;20052;-88
2023/02/17 01:39:15;;;;;;;0.77;0.77;;;;;;;;;;5094986;28;20105;-89
2023/02/17 01:41:44;;;;;;;2.15;1.33;;;;;;;;;;5080549;28;20040;-88
2023/02/17 01:44:13;;;;;;;1.60;1.50;;;;;;;;;;5075032;28;20049;-90
2023/02/17 01:46:40;;;;;;;1.48;1.45;;;;;;;;;;5075382;28;20052;-90
2023/02/17 01:49:12;;;;;;;1.67;1.05;;;;;;;;;;5075332;28;20045;-90
2023/02/17 01:51:39;;;;;;;2.53;2.03;;;;;;;;;;5075171;28;20052;-90
2023/02/17 01:54:06;;;;;;;2.00;1.90;;;;;;;;;;5075120;28;20074;-90
2023/02/17 01:56:35;;;;;;;1.48;1.38;;;;;;;;;;5074606;28;20110;-90
2023/02/17 01:59:05;;;;;;;1.55;1.45;;;;;;;;;;5074651;28;20493;-89
2023/02/17 02:01:31;;;;;;;2.22;2.03;;;;;;;;;;5074838;28;20052;-89
2023/02/17 02:03:58;;;;;;;0.63;0.63;;;;;;;;;;5074920;28;20415;-89
2023/02/17 02:06:26;;;;;;;0.90;0.90;;;;;;;;;;5074459;28;20048;-90
2023/02/17 02:08:54;;;;;;;1.25;1.02;;;;;;;;;;5075224;28;20051;-91
2023/02/17 02:11:21;;;;;;;4.63;3.03;;;;;;;;;;5075092;28;20048;-89
2023/02/17 02:13:48;;;;;;;1.48;1.23;;;;;;;;;;5074810;28;20059;-88
2023/02/17 02:16:20;;;;;;;1.85;1.77;;;;;;;;;;5074533;28;20044;-88
2023/02/17 02:18:50;;;;;;;0.85;0.85;;;;;;;;;;5074387;28;20486;-88
2023/02/17 02:21:35;;;;;;;1.33;1.27;;;;;;;;;;5074677;28;20123;-90
2023/02/17 02:24:09;;;;;;;1.55;1.45;;;;;;;;;;5074818;28;20041;-90
2023/02/17 02:27:03;;;;;;;1.13;1.13;;;;;;;;;;5074607;28;20048;-90
2023/02/17 02:29:42;;;;;;;1.20;1.10;;;;;;;;;;5074509;28;20059;-89
2023/02/17 02:32:24;;;;;;;2.42;2.33;;;;;;;;;;5078727;28;20444;-89
2023/02/17 02:34:53;;;;;;;6.03;2.20;;;;;;;;;;5094359;28;20485;-89
2023/02/17 02:37:22;;;;;;;0.77;0.77;;;;;;;;;;5094569;28;20044;-89
2023/02/17 02:39:50;;;;;;;0.50;0.50;;;;;;;;;;5094288;28;20055;-90
2023/02/17 02:42:18;;;;;;;3.40;3.13;;;;;;;;;;5094785;28;20051;-88
2023/02/17 02:44:45;;;;;;;2.08;2.00;;;;;;;;;;5093981;28;20052;-87
2023/02/17 02:47:26;;;;;;;0.82;0.82;;;;;;;;;;5093776;28;20056;-87
2023/02/17 02:49:54;;;;;;;3.42;1.42;;;;;;;;;;5092677;28;20044;-87
2023/02/17 02:52:26;;;;;;;1.83;1.73;;;;;;;;;;5093985;28;20671;-87
2023/02/17 02:54:57;;;;;;;1.55;1.15;;;;;;;;;;5093738;28;20048;-86
2023/02/17 02:57:30;;;;;;;2.53;1.80;;;;;;;;;;5093684;28;20059;-87
2023/02/17 03:00:04;;;;;;;2.40;2.30;;;;;;;;;;5094084;28;20048;-87
2023/02/17 03:02:33;;;;;;;3.08;1.77;;;;;;;;;;5094101;28;20140;-87
2023/02/17 03:05:05;;;;;;;0.45;0.38;;;;;;;;;;5094002;28;20056;-86
2023/02/17 03:07:33;;;;;;;1.20;1.15;;;;;;;;;;5081814;28;20049;-87
2023/02/17 03:10:00;;;;;;;2.22;2.08;;;;;;;;;;5073689;28;20052;-87
2023/02/17 03:12:27;;;;;;;1.15;1.15;;;;;;;;;;5073379;28;20056;-87
2023/02/17 03:14:55;;;;;;;3.20;3.00;;;;;;;;;;5073815;28;20044;-87
2023/02/17 03:17:22;;;;;;;1.77;1.73;;;;;;;;;;5073487;28;20098;-87
2023/02/17 03:19:48;;;;;;;1.15;1.08;;;;;;;;;;5079317;28;20059;-86
2023/02/17 03:22:19;;;;;;;1.67;1.58;;;;;;;;;;5101849;28;20051;-88
2023/02/17 03:24:46;;;;;;;1.10;1.08;;;;;;;;;;5093568;28;20055;-89
2023/02/17 03:27:12;;;;;;;1.60;1.50;;;;;;;;;;5083593;28;20048;-90
2023/02/17 03:29:39;;;;;;;1.38;1.35;;;;;;;;;;5083961;28;20516;-90
2023/02/17 03:32:06;;;;;;;3.22;3.08;;;;;;;;;;5083812;28;20060;-90
2023/02/17 03:34:32;;;;;;;3.00;2.30;;;;;;;;;;5083409;28;20052;-91
2023/02/17 03:36:59;;;;;;;1.45;1.38;;;;;;;;;;5075555;28;20143;-90
2023/02/17 03:39:27;;;;;;;1.27;1.27;;;;;;;;;;5074034;28;20049;-90
2023/02/17 03:41:53;;;;;;;1.50;1.48;;;;;;;;;;5073742;28;20506;-89
2023/02/17 03:44:20;;;;;;;0.45;0.45;;;;;;;;;;5073562;28;20101;-89
2023/02/17 03:46:47;;;;;;;0.32;0.32;;;;;;;;;;5074105;28;20102;-89
2023/02/17 03:49:13;;;;;;;2.55;2.45;;;;;;;;;;5074654;28;20055;-90
2023/02/17 03:51:40;;;;;;;2.00;1.90;;;;;;;;;;5073497;28;20049;-90
2023/02/17 03:54:06;;;;;;;1.00;1.00;;;;;;;;;;5073974;28;20056;-90
2023/02/17 03:56:34;;;;;;;2.88;1.23;;;;;;;;;;5073423;28;20052;-89
2023/02/17 03:59:01;;;;;;;1.27;1.17;;;;;;;;;;5073844;28;20056;-89
2023/02/17 04:01:27;;;;;;;1.33;1.23;;;;;;;;;;5073382;28;20102;-88
2023/02/17 04:03:54;;;;;;;1.15;1.15;;;;;;;;;;5073640;28;20053;-88
2023/02/17 04:06:21;;;;;;;0.90;0.90;;;;;;;;;;5073305;28;20064;-89
2023/02/17 04:08:47;;;;;;;5.55;3.10;;;;;;;;;;5073297;28;20044;-89
2023/02/17 04:11:14;;;;;;;0.52;0.52;;;;;;;;;;5073235;28;20048;-90
2023/02/17 04:13:42;;;;;;;0.82;0.82;;;;;;;;;;5082419;28;20101;-89
2023/02/17 04:16:09;;;;;;;0.40;0.40;;;;;;;;;;5093817;28;20093;-89
2023/02/17 04:18:36;;;;;;;1.77;1.60;;;;;;;;;;5095905;28;20048;-90
2023/02/17 04:21:02;;;;;;;1.77;1.67;;;;;;;;;;5097145;28;20097;-89
2023/02/17 04:23:29;;;;;;;2.22;2.05;;;;;;;;;;5096951;28;20055;-90
2023/02/17 04:25:55;;;;;;;1.88;1.77;;;;;;;;;;5097067;28;20048;-90
2023/02/17 04:28:22;;;;;;;2.13;2.05;;;;;;;;;;5097148;28;20438;-90
2023/02/17 04:30:50;;;;;;;2.80;2.67;;;;;;;;;;5081045;28;20048;-89
2023/02/17 04:33:17;;;;;;;1.50;1.40;;;;;;;;;;5076206;28;20053;-88
2023/02/17 04:35:44;;;;;;;1.90;1.80;;;;;;;;;;5076024;28;20055;-88
2023/02/17 04:38:11;;;;;;;0.98;0.98;;;;;;;;;;5081069;28;20040;-90
2023/02/17 04:40:38;;;;;;;1.83;1.73;;;;;;;;;;5080361;28;20052;-88
2023/02/17 04:43:04;;;;;;;0.60;0.60;;;;;;;;;;5075981;28;20052;-89
2023/02/17 04:45:31;;;;;;;1.50;1.40;;;;;;;;;;5076343;28;20075;-89
2023/02/17 04:47:59;;;;;;;1.98;1.88;;;;;;;;;;5080461;28;20048;-88
2023/02/17 04:50:25;;;;;;;1.05;1.05;;;;;;;;;;5076059;28;20106;-89
2023/02/17 04:52:52;;;;;;;0.98;0.82;;;;;;;;;;5075996;28;20048;-89
2023/02/17 04:55:19;;;;;;;0.73;0.73;;;;;;;;;;5075732;28;20094;-89
2023/02/17 04:57:45;;;;;;;1.13;1.10;;;;;;;;;;5075776;28;20056;-89
2023/02/17 05:00:12;;;;;;;0.57;0.57;;;;;;;;;;5076216;28;20052;-90
2023/02/17 05:02:39;;;;;;;0.70;0.70;;;;;;;;;;5075811;28;20680;-89
2023/02/17 05:05:07;;;;;;;1.70;1.60;;;;;;;;;;5075512;28;20052;-88
2023/02/17 05:07:33;;;;;;;0.57;0.57;;;;;;;;;;5075504;28;20101;-87
2023/02/17 05:10:00;;;;;;;2.03;1.92;;;;;;;;;;5075249;28;20060;-88
2023/02/17 05:12:26;;;;;;;1.33;1.27;;;;;;;;;;5075795;28;20044;-88
2023/02/17 05:14:53;;;;;;;0.75;0.75;;;;;;;;;;5090506;28;20475;-88
2023/02/17 05:17:19;;;;;;;1.13;1.13;;;;;;;;;;5095872;28;20093;-88
2023/02/17 05:19:46;;;;;;;2.47;2.35;;;;;;;;;;5082688;28;20048;-88
2023/02/17 05:22:14;;;;;;;0.68;0.68;;;;;;;;;;5075478;28;20044;-88
2023/02/17 05:24:40;;;;;;;2.17;2.08;;;;;;;;;;5075565;28;20048;-88
2023/02/17 05:27:07;;;;;;;1.33;1.33;;;;;;;;;;5087018;28;20048;-88
2023/02/17 05:29:34;;;;;;;1.63;1.52;;;;;;;;;;5095124;28;20055;-89
2023/02/17 05:32:00;;;;;;;2.40;2.20;;;;;;;;;;5095615;28;20052;-89
2023/02/17 05:34:27;;;;;;;1.17;1.10;;;;;;;;;;5095580;28;20447;-88
2023/02/17 05:36:53;;;;;;;3.42;3.13;;;;;;;;;;5090109;28;20043;-89
2023/02/17 05:39:21;;;;;;;1.60;1.50;;;;;;;;;;5074805;28;20056;-88
2023/02/17 05:41:48;;;;;;;3.08;2.88;;;;;;;;;;5074569;28;20053;-89
2023/02/17 05:44:14;;;;;;;0.95;0.95;;;;;;;;;;5075137;28;20052;-90
2023/02/17 05:46:41;;;;;;;1.42;1.38;;;;;;;;;;5075153;28;20154;-90
2023/02/17 05:49:07;;;;;;;1.55;1.48;;;;;;;;;;5074631;28;20555;-90
2023/02/17 05:51:34;;;;;;;3.60;2.90;;;;;;;;;;5074599;28;20044;-90
2023/02/17 05:54:00;;;;;;;0.82;0.82;;;;;;;;;;5074982;28;20041;-90
2023/02/17 05:56:28;;;;;;;3.17;2.97;;;;;;;;;;5094967;28;20063;-90
2023/02/17 05:58:55;;;;;;;1.90;1.52;;;;;;;;;;5095240;28;20055;-90
2023/02/17 06:01:21;;;;;;;1.70;1.60;;;;;;;;;;5094687;28;20109;-90
2023/02/17 06:03:48;;;;;;;0.40;0.40;;;;;;;;;;5094803;28;20052;-90
2023/02/17 06:06:15;;;;;;;1.50;1.45;;;;;;;;;;5095012;28;20097;-90
2023/02/17 06:08:41;;;;;;;2.13;2.03;;;;;;;;;;5095014;28;20105;-90
2023/02/17 06:11:08;;;;;;;1.55;1.45;;;;;;;;;;5094917;28;20078;-90
2023/02/17 06:13:36;;;;;;;4.28;3.97;;;;;;;;;;5094506;28;20051;-90
2023/02/17 06:16:03;;;;;;;2.67;2.47;;;;;;;;;;5090731;28;20048;-90
2023/02/17 06:18:29;;;;;;;2.67;2.58;;;;;;;;;;5073926;28;20107;-89
2023/02/17 06:20:56;;;;;;;2.03;1.90;;;;;;;;;;5077939;28;20056;-90
2023/02/17 06:23:23;;;;;;;1.30;1.23;;;;;;;;;;5090336;28;20050;-90
2023/02/17 06:25:49;;;;;;;2.08;1.98;;;;;;;;;;5094565;28;20051;-89
2023/02/17 06:28:16;;;;;;;2.00;1.90;;;;;;;;;;5094737;28;20385;-89
2023/02/17 06:30:44;;;;;;;2.85;2.28;;;;;;;;;;5094629;28;20131;-89
2023/02/17 06:33:10;;;;;;;1.15;1.15;;;;;;;;;;5095849;28;20052;-90
2023/02/17 06:35:37;;;;;;;1.00;1.00;;;;;;;;;;5094598;28;20044;-90
2023/02/17 06:38:03;;;;;;;1.88;1.75;;;;;;;;;;5094835;28;20417;-89
2023/02/17 06:40:30;;;;;;;2.40;2.20;;;;;;;;;;5091701;28;20052;-89
2023/02/17 06:42:56;;;;;;;2.47;2.38;;;;;;;;;;5094260;28;20047;-89
2023/02/17 06:45:23;;;;;;;5.13;4.82;;;;;;;;;;5093985;28;20538;-89
2023/02/17 06:47:51;;;;;;;1.55;1.48;;;;;;;;;;5093925;28;20109;-90
2023/02/17 06:50:17;;;;;;;3.25;3.10;;;;;;;;;;5093830;28;20113;-89
2023/02/17 06:52:44;;;;;;;6.05;4.75;;;;;;;;;;5093909;28;20044;-89
2023/02/17 06:55:11;;;;;;;1.80;1.63;;;;;;;;;;5094090;28;20044;-90
2023/02/17 06:57:37;;;;;;;2.50;2.30;;;;;;;;;;5093596;28;20501;-91
2023/02/17 07:00:05;;;;;;;3.20;2.90;;;;;;;;;;5093726;28;20044;-90
2023/02/17 07:02:31;;;;;;;4.65;3.63;;;;;;;;;;5093456;28;20058;-90
2023/02/17 07:04:59;;;;;;;2.40;2.30;;;;;;;;;;5093851;28;20085;-90
2023/02/17 07:07:26;;;;;;;5.90;5.50;;;;;;;;;;5079839;28;20098;-90
2023/02/17 07:09:52;;;;;;;3.75;3.45;;;;;;;;;;5093534;28;20131;-90
2023/02/17 07:12:19;;;;;;;4.80;2.58;;;;;;;;;;5093330;28;20061;-90
2023/02/17 07:14:45;;;;;;;2.05;1.95;;;;;;;;;;5092655;28;20097;-89
2023/02/17 07:17:12;;;;;;;3.05;2.47;;;;;;;;;;5091962;28;20113;-90
2023/02/17 07:19:38;;;;;;;3.40;3.00;;;;;;;;;;5093322;28;20105;-90
2023/02/17 07:22:06;;;;;;;3.40;3.20;;;;;;;;;;5093659;28;20044;-90
2023/02/17 07:24:33;;;;;;;5.22;4.75;;;;;;;;;;5093338;28;20105;-90
2023/02/17 07:27:00;;;;;;;5.00;4.63;;;;;;;;;;5093272;28;20139;-90
2023/02/17 07:29:26;;;;;;;7.45;5.38;;;;;;;;;;5093347;28;20044;-88
2023/02/17 07:31:53;;;;;;;1.98;1.85;;;;;;;;;;5093013;28;20066;-88
2023/02/17 07:34:19;;;;;;;3.63;3.33;;;;;;;;;;5093497;28;20109;-88
2023/02/17 07:36:46;;;;;;;8.18;6.93;;;;;;;;;;5093065;28;20048;-88
2023/02/17 07:39:14;;;;;;;6.32;5.82;;;;;;;;;;5088862;28;20052;-88
2023/02/17 07:41:41;;;;;;;2.25;2.08;;;;;;;;;;5092769;28;20105;-89
2023/02/17 07:44:08;;;;;;;6.35;4.07;;;;;;;;;;5093395;28;20093;-89
2023/02/17 07:46:35;;;;;;;6.25;5.85;;;;;;;;;;5093219;28;20082;-89
2023/02/17 07:49:01;;;;;;;4.38;4.15;;;;;;;;;;5092610;28;20090;-89
2023/02/17 07:51:28;;;;;;;3.15;2.88;;;;;;;;;;5093763;28;20048;-90
2023/02/17 07:53:55;;;;;;;4.95;4.55;;;;;;;;;;5095431;28;20106;-90
2023/02/17 07:56:24;;;;;;;7.18;4.40;;;;;;;;;;5093004;28;20074;-91
2023/02/17 07:58:51;;;;;;;6.72;4.10;;;;;;;;;;5083262;28;20052;-89
2023/02/17 08:01:18;;;;;;;5.57;5.00;;;;;;;;;;5076826;28;20105;-89
2023/02/17 08:03:45;;;;;;;3.72;3.53;;;;;;;;;;5091458;28;20086;-89
2023/02/17 08:06:13;;;;;;;4.03;3.72;;;;;;;;;;5088360;28;20044;-89
2023/02/17 08:14:25;;;;;;;4.05;3.75;;;;;;;;;;4996444;28;20121;-90
2023/02/17 08:16:52;;;;;;;4.28;3.55;;;;;;;;;;4996169;28;20062;-90
2023/02/17 08:19:19;;;;;;;6.28;5.68;;;;;;;;;;5010507;28;20041;-90
2023/02/17 08:21:45;;;;;;;4.95;4.43;;;;;;;;;;5013701;28;20050;-91
2023/02/17 08:24:12;;;;;;;3.92;3.58;;;;;;;;;;5014897;28;20050;-90
2023/02/17 08:26:40;;;;;;;5.07;4.72;;;;;;;;;;5014665;28;20463;-90
2023/02/17 08:29:07;;;;;;;4.15;2.95;;;;;;;;;;5015861;28;20050;-91
2023/02/17 08:31:34;;;;;;;4.32;3.92;;;;;;;;;;5012076;28;20053;-89
2023/02/17 08:34:01;;;;;;;4.18;3.75;;;;;;;;;;5013385;28;20069;-89
2023/02/17 08:36:29;;;;;;;4.53;3.83;;;;;;;;;;5014144;28;20397;-89
2023/02/17 08:38:56;;;;;;;3.67;3.35;;;;;;;;;;5013798;28;20057;-89
2023/02/17 08:41:23;;;;;;;6.22;3.60;;;;;;;;;;5014036;28;20100;-89
2023/02/17 08:43:52;;;;;;;8.40;6.20;;;;;;;;;;5014230;28;20045;-90
2023/02/17 08:46:19;;;;;;;4.13;3.80;;;;;;;;;;5087419;28;20055;-91
2023/02/17 08:48:46;;;;;;;5.43;4.40;;;;;;;;;;5094321;28;20059;-92
2023/02/17 08:51:13;;;;;;;4.25;3.88;;;;;;;;;;5078706;28;20098;-90
2023/02/17 08:53:40;;;;;;;4.30;3.92;;;;;;;;;;5075688;28;20083;-90
2023/02/17 08:56:06;;;;;;;5.10;4.78;;;;;;;;;;5075786;28;20121;-89
2023/02/17 08:58:33;;;;;;;10.05;4.18;;;;;;;;;;5075535;28;20051;-90
2023/02/17 09:01:01;;;;;;;6.00;3.53;;;;;;;;;;5075831;28;20454;-90
2023/02/17 09:03:27;;;;;;;5.65;4.40;;;;;;;;;;5074960;28;20718;-89
2023/02/17 09:05:54;;;;;;;7.97;7.20;;;;;;;;;;5081778;28;20048;-90
2023/02/17 09:08:22;;;;;;;10.10;3.60;;;;;;;;;;5096025;28;20464;-90
2023/02/17 09:10:48;;;;;;;4.85;4.55;;;;;;;;;;5095633;28;20058;-90
2023/02/17 09:13:15;;;;;;;5.22;4.72;;;;;;;;;;5095381;28;20043;-90
2023/02/17 09:15:41;;;;;;;4.53;4.05;;;;;;;;;;5095575;28;20048;-90
2023/02/17 09:18:09;;;;;;;8.93;3.58;;;;;;;;;;5095002;28;20489;-90
2023/02/17 09:20:38;;;;;;;3.70;3.22;;;;;;;;;;5094294;28;20044;-91
2023/02/17 09:23:04;;;;;;;5.95;4.03;;;;;;;;;;5094427;28;20048;-89
2023/02/17 09:25:31;;;;;;;5.60;3.67;;;;;;;;;;5095424;28;20052;-89
2023/02/17 09:27:58;;;;;;;4.97;4.45;;;;;;;;;;5095881;28;20040;-90
2023/02/17 09:30:24;;;;;;;5.00;4.63;;;;;;;;;;5095895;28;20056;-90
2023/02/17 09:32:51;;;;;;;3.28;2.88;;;;;;;;;;5095578;28;20519;-87
2023/02/17 09:35:19;;;;;;;5.57;5.18;;;;;;;;;;5094330;28;20040;-88
2023/02/17 09:37:46;;;;;;;4.45;4.05;;;;;;;;;;5090342;28;20098;-88
2023/02/17 09:40:17;;;;;;;3.55;3.22;;;;;;;;;;5093529;28;20052;-87
2023/02/17 09:42:43;;;;;;;3.95;3.03;;;;;;;;;;5088689;28;20048;-86
2023/02/17 09:45:11;;;;;;;3.40;3.22;;;;;;;;;;5093807;28;20097;-87
2023/02/17 09:47:38;;;;;;;3.00;2.85;;;;;;;;;;5093749;28;20044;-87
2023/02/17 09:50:06;;;;;;;1.90;1.73;;;;;;;;;;5094437;28;20615;-87
2023/02/17 09:52:36;;;;;;;7.68;4.25;;;;;;;;;;5094509;28;20059;-87
2023/02/17 09:55:04;;;;;;;2.83;2.20;;;;;;;;;;5094149;28;20044;-86
2023/02/17 09:57:34;;;;;;;10.63;4.75;;;;;;;;;;5093738;28;20059;-86
2023/02/17 10:00:04;;;;;;;2.47;2.33;;;;;;;;;;5084597;28;20569;-86
2023/02/17 10:02:34;;;;;;;2.80;2.22;;;;;;;;;;5092877;28;20543;-86
2023/02/17 10:05:02;;;;;;;11.65;3.67;;;;;;;;;;5093686;28;20047;-86
2023/02/17 10:07:30;;;;;;;2.35;2.17;;;;;;;;;;5094585;28;20108;-87
2023/02/17 10:10:02;;;;;;;4.57;4.20;;;;;;;;;;5094052;28;20101;-87
2023/02/17 10:12:32;;;;;;;5.32;4.47;;;;;;;;;;5094142;28;20106;-87
2023/02/17 10:15:01;;;;;;;5.38;4.22;;;;;;;;;;5092971;28;20043;-87
2023/02/17 10:17:32;;;;;;;6.07;4.82;;;;;;;;;;5093595;28;20048;-88
2023/02/17 10:20:03;;;;;;;6.13;4.88;;;;;;;;;;5093748;28;20052;-87
2023/02/17 10:22:31;;;;;;;5.75;4.55;;;;;;;;;;5094141;28;20048;-88
2023/02/17 10:25:00;;;;;;;5.80;5.32;;;;;;;;;;5093653;28;20064;-88
2023/02/17 10:27:30;;;;;;;6.57;5.82;;;;;;;;;;5093745;28;20044;-88
2023/02/17 10:30:02;;;;;;;6.00;5.40;;;;;;;;;;5083133;28;20075;-89
2023/02/17 10:32:29;;;;;;;5.32;3.85;;;;;;;;;;5093805;28;20135;-87
2023/02/17 10:35:11;;;;;;;5.28;4.85;;;;;;;;;;5079508;28;20131;-88
2023/02/17 10:37:39;;;;;;;17.02;6.50;;;;;;;;;;5090632;28;20049;-87
2023/02/17 10:40:11;;;;;;;9.52;4.93;;;;;;;;;;5073480;28;20117;-87
2023/02/17 10:42:39;;;;;;;5.82;5.43;;;;;;;;;;5073481;28;20094;-88
2023/02/17 10:45:06;;;;;;;5.10;4.60;;;;;;;;;;5093182;28;20048;-87
2023/02/17 10:47:35;;;;;;;4.53;4.18;;;;;;;;;;5093148;28;20420;-87
2023/02/17 10:50:03;;;;;;;7.13;6.57;;;;;;;;;;5093059;28;20101;-88
2023/02/17 10:52:33;;;;;;;6.80;4.93;;;;;;;;;;5093949;28;20444;-87
2023/02/17 10:55:02;;;;;;;10.10;5.25;;;;;;;;;;5091504;28;20048;-87
2023/02/17 10:57:33;;;;;;;7.55;6.13;;;;;;;;;;5093705;28;20086;-88
2023/02/17 10:59:59;;;;;;;6.78;6.07;;;;;;;;;;5093433;28;20040;-89
2023/02/17 11:02:33;;;;;;;7.20;6.55;;;;;;;;;;5093790;28;20052;-88
2023/02/17 11:04:59;;;;;;;7.95;5.53;;;;;;;;;;5093705;28;20044;-88
2023/02/17 11:07:31;;;;;;;10.32;7.28;;;;;;;;;;5093769;28;20048;-88
2023/02/17 11:10:00;;;;;;;9.02;8.05;;;;;;;;;;5093214;28;20086;-88
2023/02/17 11:12:28;;;;;;;6.38;5.78;;;;;;;;;;5088919;28;20040;-89
2023/02/17 11:14:56;;;;;;;4.82;4.50;;;;;;;;;;5092783;28;20044;-89
2023/02/17 11:17:26;;;;;;;7.53;4.93;;;;;;;;;;5093524;28;20047;-89
2023/02/17 11:19:56;;;;;;;7.65;7.13;;;;;;;;;;5093639;28;20098;-87
2023/02/17 11:22:29;;;;;;;6.93;6.32;;;;;;;;;;5093245;28;20052;-88
2023/02/17 11:24:58;;;;;;;9.30;7.50;;;;;;;;;;5093470;28;20055;-88
2023/02/17 11:27:25;;;;;;;4.50;4.07;;;;;;;;;;5095374;28;20051;-88
2023/02/17 11:29:51;;;;;;;8.40;7.55;;;;;;;;;;5094682;28;20059;-88
2023/02/17 11:32:30;;;;;;;6.20;5.53;;;;;;;;;;5090323;28;20082;-89
2023/02/17 11:34:59;;;;;;;7.82;6.68;;;;;;;;;;5096171;28;20489;-89
2023/02/17 11:37:27;;;;;;;8.57;7.57;;;;;;;;;;5093852;28;20043;-88
2023/02/17 11:39:55;;;;;;;11.77;6.30;;;;;;;;;;5097068;28;20053;-88
2023/02/17 11:42:22;;;;;;;9.98;8.68;;;;;;;;;;5096707;28;20105;-90
2023/02/17 11:44:49;;;;;;;8.43;7.75;;;;;;;;;;5097280;28;20052;-89
2023/02/17 11:47:22;;;;;;;5.57;5.15;;;;;;;;;;5097142;28;20051;-89
2023/02/17 11:50:16;;;;;;;8.57;7.90;;;;;;;;;;5094810;28;20127;-89
2023/02/17 11:52:54;;;;;;;6.20;5.60;;;;;;;;;;5028417;28;20159;-89
2023/02/17 11:55:23;;;;;;;5.60;5.15;;;;;;;;;;5034677;28;20473;-89
2023/02/17 11:57:56;;;;;;;7.38;6.72;;;;;;;;;;5034234;28;20099;-89
2023/02/17 12:00:27;;;;;;;7.43;6.63;;;;;;;;;;5034596;28;20049;-89
2023/02/17 12:03:04;;;;;;;4.88;4.40;;;;;;;;;;5033506;28;20591;-89
2023/02/17 12:05:33;;;;;;;9.27;6.78;;;;;;;;;;5034476;28;20045;-89
2023/02/17 12:08:07;;;;;;;5.00;4.55;;;;;;;;;;5034050;28;20049;-89
2023/02/17 12:10:45;;;;;;;7.82;7.07;;;;;;;;;;5037114;28;20099;-91
2023/02/17 12:13:21;;;;;;;6.55;5.50;;;;;;;;;;5038161;28;20045;-89
2023/02/17 12:15:55;;;;;;;5.95;5.45;;;;;;;;;;5038111;28;20049;-90
2023/02/17 12:18:33;;;;;;;4.57;4.25;;;;;;;;;;5038366;28;20564;-88
2023/02/17 12:21:05;;;;;;;6.88;6.25;;;;;;;;;;5037494;28;20049;-89
2023/02/17 12:23:45;;;;;;;5.93;4.88;;;;;;;;;;5023484;28;20050;-88
2023/02/17 12:26:14;;;;;;;6.82;6.22;;;;;;;;;;5014285;28;20054;-89
2023/02/17 12:28:44;;;;;;;4.65;4.25;;;;;;;;;;5049121;28;20052;-89
2023/02/17 12:31:16;;;;;;;6.50;5.95;;;;;;;;;;5076148;28;20113;-90
2023/02/17 12:33:50;;;;;;;6.13;4.45;;;;;;;;;;5076564;28;20126;-90
2023/02/17 12:36:17;;;;;;;5.60;5.13;;;;;;;;;;5080130;28;20455;-91
2023/02/17 12:38:48;;;;;;;6.88;5.95;;;;;;;;;;5099512;28;20056;-91
2023/02/17 12:41:14;;;;;;;;;;;;;;;;;;5097317;28;20055;-91
2023/02/17 12:43:42;;;;;;;5.03;4.63;;;;;;;;;;5100887;28;19920;-90
2023/02/17 12:46:10;;;;;;;7.38;6.68;;;;;;;;;;5100703;28;20139;-90
2023/02/17 12:48:39;;;;;;;5.80;5.30;;;;;;;;;;5100175;28;20048;-89
2023/02/17 12:51:08;;;;;;;7.50;6.43;;;;;;;;;;5099945;28;20056;-90
2023/02/17 12:53:40;;;;;;;6.40;5.80;;;;;;;;;;5099432;28;20044;-90
2023/02/17 12:56:20;;;;;;;5.75;5.30;;;;;;;;;;5090629;28;20051;-92
2023/02/17 12:58:47;;;;;;;7.13;6.50;;;;;;;;;;5095066;28;20044;-91
2023/02/17 13:01:18;;;;;;;6.95;6.38;;;;;;;;;;5098957;28;20059;-90
2023/02/17 13:03:45;;;;;;;6.15;5.63;;;;;;;;;;5093965;28;20072;-90
2023/02/17 13:06:17;;;;;;;8.10;7.32;;;;;;;;;;5104625;28;20059;-89
2023/02/17 13:08:46;;;;;;;6.57;6.05;;;;;;;;;;5106990;28;20143;-90
2023/02/17 13:11:26;;;;;;;11.30;10.18;;;;;;;;;;5107287;28;20047;-90
2023/02/17 13:13:52;;;;;;;6.57;5.88;;;;;;;;;;5102605;28;20044;-90
2023/02/17 13:16:19;;;;;;;7.50;6.88;;;;;;;;;;5099780;28;20044;-89
2023/02/17 13:18:46;;;;;;;6.72;6.13;;;;;;;;;;5095596;28;20044;-91
2023/02/17 13:21:17;;;;;;;5.63;5.22;;;;;;;;;;5096560;28;20052;-91
2023/02/17 13:23:46;;;;;;;7.80;6.80;;;;;;;;;;5098762;28;20052;-91
2023/02/17 13:26:26;;;;;;;5.68;5.18;;;;;;;;;;5096326;28;20402;-91
2023/02/17 13:28:54;;;;;;;6.35;5.85;;;;;;;;;;5097392;28;20048;-90
2023/02/17 13:31:22;;;;;;;6.47;5.88;;;;;;;;;;5096642;28;20052;-90
2023/02/17 13:33:50;;;;;;;5.90;5.00;;;;;;;;;;5096216;28;20055;-91
2023/02/17 13:36:20;;;;;;;7.30;6.80;;;;;;;;;;5075586;28;20048;-89
2023/02/17 13:38:55;;;;;;;7.70;7.18;;;;;;;;;;5075642;28;20048;-90
2023/02/17 13:41:21;;;;;;;5.72;5.30;;;;;;;;;;5075178;28;20057;-90
2023/02/17 13:43:49;;;;;;;7.95;7.20;;;;;;;;;;5074744;28;20049;-89
2023/02/17 13:46:18;;;;;;;5.50;5.07;;;;;;;;;;5075103;28;20079;-89
2023/02/17 13:48:45;;;;;;;6.53;6.05;;;;;;;;;;5075080;28;20052;-89
2023/02/17 13:51:24;;;;;;;7.88;7.20;;;;;;;;;;5080083;28;20044;-90
2023/02/17 13:53:51;;;;;;;7.50;6.97;;;;;;;;;;5094897;28;20047;-89
2023/02/17 13:56:23;;;;;;;8.52;7.40;;;;;;;;;;5094776;28;20063;-89
2023/02/17 13:58:51;;;;;;;7.18;6.38;;;;;;;;;;5095303;28;20040;-90
2023/02/17 14:01:19;;;;;;;9.55;8.27;;;;;;;;;;5074978;28;20048;-90
2023/02/17 14:03:47;;;;;;;8.25;7.50;;;;;;;;;;5088180;28;20048;-90
2023/02/17 14:06:19;;;;;;;8.50;7.53;;;;;;;;;;5095065;28;20048;-90
2023/02/17 14:08:47;;;;;;;6.28;5.82;;;;;;;;;;5094079;28;20052;-90
2023/02/17 14:11:18;;;;;;;8.38;7.55;;;;;;;;;;5094592;28;20403;-91
2023/02/17 14:13:46;;;;;;;12.93;7.80;;;;;;;;;;5094220;28;20048;-88
2023/02/17 14:16:26;;;;;;;8.90;6.95;;;;;;;;;;5094464;28;20041;-89
2023/02/17 14:19:00;;;;;;;5.82;5.32;;;;;;;;;;5094581;28;20052;-91
2023/02/17 14:21:27;;;;;;;6.72;6.25;;;;;;;;;;5094569;28;20074;-88
2023/02/17 14:23:54;;;;;;;7.35;6.80;;;;;;;;;;5094732;28;20063;-90
2023/02/17 14:26:30;;;;;;;7.75;5.57;;;;;;;;;;5094632;28;20074;-91
2023/02/17 14:28:57;;;;;;;4.80;4.40;;;;;;;;;;5090758;28;20048;-88
2023/02/17 14:31:25;;;;;;;7.60;5.90;;;;;;;;;;5093007;28;20478;-89
2023/02/17 14:33:53;;;;;;;9.98;9.27;;;;;;;;;;5093693;28;20044;-89
2023/02/17 14:36:25;;;;;;;7.20;5.10;;;;;;;;;;5093769;28;20534;-88
2023/02/17 14:38:54;;;;;;;6.57;6.00;;;;;;;;;;5094441;28;20074;-89
2023/02/17 14:41:21;;;;;;;6.18;5.72;;;;;;;;;;5093446;28;20421;-87
2023/02/17 14:43:47;;;;;;;5.97;5.47;;;;;;;;;;5093769;28;20048;-88
2023/02/17 14:46:18;;;;;;;4.53;4.05;;;;;;;;;;5093904;28;20044;-87
2023/02/17 14:48:44;;;;;;;;;;;;;;;;;;5094564;28;20094;-87
2023/02/17 14:51:13;;;;;;;6.05;5.65;;;;;;;;;;5094410;28;20426;-88
2023/02/17 14:53:40;;;;;;;4.72;4.43;;;;;;;;;;5093815;28;20135;-88
2023/02/17 14:56:08;;;;;;;6.03;5.53;;;;;;;;;;5092952;28;20556;-88